Metar z pełnej godziny Komunikat METAR ze strony awiacja.imgw.pl Metar G00 EPBY METAR EPBY 261200Z 28014KT 9999 SCT012 BKN020 01/M01 Q1006=